sensor_id;sensor_type;location;lat;lon;timestamp;temperature;humidity
11142;DHT22;5625;50.122;19.864;2023-11-21T00:01:23;8.50;99.90
11142;DHT22;5625;50.122;19.864;2023-11-21T00:03:51;8.50;99.90
11142;DHT22;5625;50.122;19.864;2023-11-21T00:06:23;8.50;99.90
11142;DHT22;5625;50.122;19.864;2023-11-21T00:08:51;8.50;99.90
11142;DHT22;5625;50.122;19.864;2023-11-21T00:11:19;8.50;99.90
11142;DHT22;5625;50.122;19.864;2023-11-21T00:13:48;8.50;99.90
11142;DHT22;5625;50.122;19.864;2023-11-21T00:16:17;8.50;99.90
11142;DHT22;5625;50.122;19.864;2023-11-21T00:18:45;8.50;99.90
11142;DHT22;5625;50.122;19.864;2023-11-21T00:21:14;8.50;99.90
11142;DHT22;5625;50.122;19.864;2023-11-21T00:23:44;8.50;99.90
11142;DHT22;5625;50.122;19.864;2023-11-21T00:26:12;8.50;99.90
11142;DHT22;5625;50.122;19.864;2023-11-21T00:28:41;8.50;99.90
11142;DHT22;5625;50.122;19.864;2023-11-21T00:31:09;8.50;99.90
11142;DHT22;5625;50.122;19.864;2023-11-21T00:33:37;8.50;99.90
11142;DHT22;5625;50.122;19.864;2023-11-21T00:36:06;8.50;99.90
11142;DHT22;5625;50.122;19.864;2023-11-21T00:38:36;8.50;99.90
11142;DHT22;5625;50.122;19.864;2023-11-21T00:41:07;8.50;99.90
11142;DHT22;5625;50.122;19.864;2023-11-21T00:43:35;8.50;99.90
11142;DHT22;5625;50.122;19.864;2023-11-21T00:46:04;8.50;99.90
11142;DHT22;5625;50.122;19.864;2023-11-21T00:48:34;8.50;99.90
11142;DHT22;5625;50.122;19.864;2023-11-21T00:51:02;8.50;99.90
11142;DHT22;5625;50.122;19.864;2023-11-21T00:53:30;8.40;99.90
11142;DHT22;5625;50.122;19.864;2023-11-21T00:55:58;8.40;99.90
11142;DHT22;5625;50.122;19.864;2023-11-21T00:58:28;8.40;99.90
11142;DHT22;5625;50.122;19.864;2023-11-21T01:00:57;8.40;99.90
11142;DHT22;5625;50.122;19.864;2023-11-21T01:03:25;8.40;99.90
11142;DHT22;5625;50.122;19.864;2023-11-21T01:05:54;8.40;99.90
11142;DHT22;5625;50.122;19.864;2023-11-21T01:08:22;8.40;99.90
11142;DHT22;5625;50.122;19.864;2023-11-21T01:10:51;8.40;99.90
11142;DHT22;5625;50.122;19.864;2023-11-21T01:13:19;8.40;99.90
11142;DHT22;5625;50.122;19.864;2023-11-21T01:15:49;8.40;99.90
11142;DHT22;5625;50.122;19.864;2023-11-21T01:18:17;8.40;99.90
11142;DHT22;5625;50.122;19.864;2023-11-21T01:20:46;8.40;99.90
11142;DHT22;5625;50.122;19.864;2023-11-21T01:23:14;8.50;99.90
11142;DHT22;5625;50.122;19.864;2023-11-21T01:25:43;8.40;99.90
11142;DHT22;5625;50.122;19.864;2023-11-21T01:28:11;8.40;99.90
11142;DHT22;5625;50.122;19.864;2023-11-21T01:30:39;8.40;99.90
11142;DHT22;5625;50.122;19.864;2023-11-21T01:33:09;8.40;99.90
11142;DHT22;5625;50.122;19.864;2023-11-21T01:35:37;8.40;99.90
11142;DHT22;5625;50.122;19.864;2023-11-21T01:38:06;8.40;99.90
11142;DHT22;5625;50.122;19.864;2023-11-21T01:40:35;8.40;99.90
11142;DHT22;5625;50.122;19.864;2023-11-21T01:43:03;8.40;99.90
11142;DHT22;5625;50.122;19.864;2023-11-21T01:45:31;8.40;99.90
11142;DHT22;5625;50.122;19.864;2023-11-21T01:48:01;8.40;99.90
11142;DHT22;5625;50.122;19.864;2023-11-21T01:50:31;8.40;99.90
11142;DHT22;5625;50.122;19.864;2023-11-21T01:53:00;8.40;99.90
11142;DHT22;5625;50.122;19.864;2023-11-21T01:55:30;8.40;99.90
11142;DHT22;5625;50.122;19.864;2023-11-21T01:57:58;8.40;99.90
11142;DHT22;5625;50.122;19.864;2023-11-21T02:00:26;8.40;99.90
11142;DHT22;5625;50.122;19.864;2023-11-21T02:02:56;8.40;99.90
11142;DHT22;5625;50.122;19.864;2023-11-21T02:05:26;8.40;99.90
11142;DHT22;5625;50.122;19.864;2023-11-21T02:07:58;8.40;99.90
11142;DHT22;5625;50.122;19.864;2023-11-21T02:10:27;8.40;99.90
11142;DHT22;5625;50.122;19.864;2023-11-21T02:12:56;8.40;99.90
11142;DHT22;5625;50.122;19.864;2023-11-21T02:15:25;8.40;99.90
11142;DHT22;5625;50.122;19.864;2023-11-21T02:17:56;8.40;99.90
11142;DHT22;5625;50.122;19.864;2023-11-21T02:20:25;8.40;99.90
11142;DHT22;5625;50.122;19.864;2023-11-21T02:22:57;8.40;99.90
11142;DHT22;5625;50.122;19.864;2023-11-21T02:25:27;8.40;99.90
11142;DHT22;5625;50.122;19.864;2023-11-21T02:27:58;8.40;99.90
11142;DHT22;5625;50.122;19.864;2023-11-21T02:30:27;8.40;99.90
11142;DHT22;5625;50.122;19.864;2023-11-21T02:32:55;8.40;99.90
11142;DHT22;5625;50.122;19.864;2023-11-21T02:35:25;8.40;99.90
11142;DHT22;5625;50.122;19.864;2023-11-21T02:37:55;8.40;99.90
11142;DHT22;5625;50.122;19.864;2023-11-21T02:40:23;8.40;99.90
11142;DHT22;5625;50.122;19.864;2023-11-21T02:42:54;8.40;99.90
11142;DHT22;5625;50.122;19.864;2023-11-21T02:45:22;8.40;99.90
11142;DHT22;5625;50.122;19.864;2023-11-21T02:47:51;8.40;99.90
11142;DHT22;5625;50.122;19.864;2023-11-21T02:50:24;8.40;99.90
11142;DHT22;5625;50.122;19.864;2023-11-21T02:52:55;8.30;99.90
11142;DHT22;5625;50.122;19.864;2023-11-21T02:55:27;8.30;99.90
11142;DHT22;5625;50.122;19.864;2023-11-21T02:57:55;8.30;99.90
11142;DHT22;5625;50.122;19.864;2023-11-21T03:00:24;8.30;99.90
11142;DHT22;5625;50.122;19.864;2023-11-21T03:02:55;8.30;99.90
11142;DHT22;5625;50.122;19.864;2023-11-21T03:05:24;8.30;99.90
11142;DHT22;5625;50.122;19.864;2023-11-21T03:07:52;8.30;99.90
11142;DHT22;5625;50.122;19.864;2023-11-21T03:10:22;8.30;99.90
11142;DHT22;5625;50.122;19.864;2023-11-21T03:12:50;8.30;99.90
11142;DHT22;5625;50.122;19.864;2023-11-21T03:15:19;8.30;99.90
11142;DHT22;5625;50.122;19.864;2023-11-21T03:17:47;8.30;99.90
11142;DHT22;5625;50.122;19.864;2023-11-21T03:20:17;8.30;99.90
11142;DHT22;5625;50.122;19.864;2023-11-21T03:22:45;8.30;99.90
11142;DHT22;5625;50.122;19.864;2023-11-21T03:25:14;8.30;99.90
11142;DHT22;5625;50.122;19.864;2023-11-21T03:27:45;8.30;99.90
11142;DHT22;5625;50.122;19.864;2023-11-21T03:30:14;8.30;99.90
11142;DHT22;5625;50.122;19.864;2023-11-21T03:32:45;8.30;99.90
11142;DHT22;5625;50.122;19.864;2023-11-21T03:35:13;8.30;99.90
11142;DHT22;5625;50.122;19.864;2023-11-21T03:37:42;8.20;99.90
11142;DHT22;5625;50.122;19.864;2023-11-21T03:40:11;8.20;99.90
11142;DHT22;5625;50.122;19.864;2023-11-21T03:42:40;8.20;99.90
11142;DHT22;5625;50.122;19.864;2023-11-21T03:45:10;8.20;99.90
11142;DHT22;5625;50.122;19.864;2023-11-21T03:47:40;8.20;99.90
11142;DHT22;5625;50.122;19.864;2023-11-21T03:50:09;8.20;99.90
11142;DHT22;5625;50.122;19.864;2023-11-21T03:52:37;8.20;99.90
11142;DHT22;5625;50.122;19.864;2023-11-21T03:55:06;8.20;99.90
11142;DHT22;5625;50.122;19.864;2023-11-21T03:57:34;8.20;99.90
11142;DHT22;5625;50.122;19.864;2023-11-21T04:00:03;8.20;99.90
11142;DHT22;5625;50.122;19.864;2023-11-21T04:02:37;8.20;99.90
11142;DHT22;5625;50.122;19.864;2023-11-21T04:05:05;8.20;99.90
11142;DHT22;5625;50.122;19.864;2023-11-21T04:07:34;8.20;99.90
11142;DHT22;5625;50.122;19.864;2023-11-21T04:10:05;8.20;99.90
11142;DHT22;5625;50.122;19.864;2023-11-21T04:12:35;8.20;99.90
11142;DHT22;5625;50.122;19.864;2023-11-21T04:15:04;8.10;99.90
11142;DHT22;5625;50.122;19.864;2023-11-21T04:17:32;8.10;99.90
11142;DHT22;5625;50.122;19.864;2023-11-21T04:20:02;8.10;99.90
11142;DHT22;5625;50.122;19.864;2023-11-21T04:22:36;8.20;99.90
11142;DHT22;5625;50.122;19.864;2023-11-21T04:25:08;8.10;99.90
11142;DHT22;5625;50.122;19.864;2023-11-21T04:27:39;8.10;99.90
11142;DHT22;5625;50.122;19.864;2023-11-21T04:30:08;8.10;99.90
11142;DHT22;5625;50.122;19.864;2023-11-21T04:32:37;8.10;99.90
11142;DHT22;5625;50.122;19.864;2023-11-21T04:35:08;8.10;99.90
11142;DHT22;5625;50.122;19.864;2023-11-21T04:37:36;8.10;99.90
11142;DHT22;5625;50.122;19.864;2023-11-21T04:40:05;8.10;99.90
11142;DHT22;5625;50.122;19.864;2023-11-21T04:42:34;8.10;99.90
11142;DHT22;5625;50.122;19.864;2023-11-21T04:45:04;8.10;99.90
11142;DHT22;5625;50.122;19.864;2023-11-21T04:47:38;8.10;99.90
11142;DHT22;5625;50.122;19.864;2023-11-21T04:50:08;8.10;99.90
11142;DHT22;5625;50.122;19.864;2023-11-21T04:52:36;8.10;99.90
11142;DHT22;5625;50.122;19.864;2023-11-21T04:55:05;8.10;99.90
11142;DHT22;5625;50.122;19.864;2023-11-21T04:57:37;8.10;99.90
11142;DHT22;5625;50.122;19.864;2023-11-21T05:00:07;8.10;99.90
11142;DHT22;5625;50.122;19.864;2023-11-21T05:02:35;8.10;99.90
11142;DHT22;5625;50.122;19.864;2023-11-21T05:05:07;8.00;99.90
11142;DHT22;5625;50.122;19.864;2023-11-21T05:07:38;8.00;99.90
11142;DHT22;5625;50.122;19.864;2023-11-21T05:10:07;8.00;99.90
11142;DHT22;5625;50.122;19.864;2023-11-21T05:12:39;8.00;99.90
11142;DHT22;5625;50.122;19.864;2023-11-21T05:15:08;8.00;99.90
11142;DHT22;5625;50.122;19.864;2023-11-21T05:17:38;8.00;99.90
11142;DHT22;5625;50.122;19.864;2023-11-21T05:20:11;8.00;99.90
11142;DHT22;5625;50.122;19.864;2023-11-21T05:22:41;8.00;99.90
11142;DHT22;5625;50.122;19.864;2023-11-21T05:25:09;8.00;99.90
11142;DHT22;5625;50.122;19.864;2023-11-21T05:27:38;8.00;99.90
11142;DHT22;5625;50.122;19.864;2023-11-21T05:30:07;8.00;99.90
11142;DHT22;5625;50.122;19.864;2023-11-21T05:32:39;8.00;99.90
11142;DHT22;5625;50.122;19.864;2023-11-21T05:35:11;8.00;99.90
11142;DHT22;5625;50.122;19.864;2023-11-21T05:37:43;8.00;99.90
11142;DHT22;5625;50.122;19.864;2023-11-21T05:40:13;8.00;99.90
11142;DHT22;5625;50.122;19.864;2023-11-21T05:42:41;8.00;99.90
11142;DHT22;5625;50.122;19.864;2023-11-21T05:45:10;8.00;99.90
11142;DHT22;5625;50.122;19.864;2023-11-21T05:47:40;8.00;99.90
11142;DHT22;5625;50.122;19.864;2023-11-21T05:50:11;7.90;99.90
11142;DHT22;5625;50.122;19.864;2023-11-21T05:52:42;7.90;99.90
11142;DHT22;5625;50.122;19.864;2023-11-21T05:55:11;7.90;99.90
11142;DHT22;5625;50.122;19.864;2023-11-21T05:57:41;7.90;99.90
11142;DHT22;5625;50.122;19.864;2023-11-21T06:00:11;8.00;99.90
11142;DHT22;5625;50.122;19.864;2023-11-21T06:02:45;7.90;99.90
11142;DHT22;5625;50.122;19.864;2023-11-21T06:05:14;7.90;99.90
11142;DHT22;5625;50.122;19.864;2023-11-21T06:07:43;7.90;99.90
11142;DHT22;5625;50.122;19.864;2023-11-21T06:10:12;7.90;99.90
11142;DHT22;5625;50.122;19.864;2023-11-21T06:12:41;7.90;99.90
11142;DHT22;5625;50.122;19.864;2023-11-21T06:15:11;7.90;99.90
11142;DHT22;5625;50.122;19.864;2023-11-21T06:17:41;8.00;99.90
11142;DHT22;5625;50.122;19.864;2023-11-21T06:20:12;8.00;99.90
11142;DHT22;5625;50.122;19.864;2023-11-21T06:22:43;8.00;99.90
11142;DHT22;5625;50.122;19.864;2023-11-21T06:25:12;8.00;99.90
11142;DHT22;5625;50.122;19.864;2023-11-21T06:27:42;7.90;99.90
11142;DHT22;5625;50.122;19.864;2023-11-21T06:30:12;8.00;99.90
11142;DHT22;5625;50.122;19.864;2023-11-21T06:32:42;8.00;99.90
11142;DHT22;5625;50.122;19.864;2023-11-21T06:35:18;8.00;99.90
11142;DHT22;5625;50.122;19.864;2023-11-21T06:37:48;8.00;99.90
11142;DHT22;5625;50.122;19.864;2023-11-21T06:40:18;8.00;99.90
11142;DHT22;5625;50.122;19.864;2023-11-21T06:42:48;8.00;99.90
11142;DHT22;5625;50.122;19.864;2023-11-21T06:45:17;8.00;99.90
11142;DHT22;5625;50.122;19.864;2023-11-21T06:47:47;8.00;99.90
11142;DHT22;5625;50.122;19.864;2023-11-21T06:50:15;8.00;99.90
11142;DHT22;5625;50.122;19.864;2023-11-21T06:52:44;8.00;99.90
11142;DHT22;5625;50.122;19.864;2023-11-21T06:55:14;8.00;99.90
11142;DHT22;5625;50.122;19.864;2023-11-21T06:57:45;8.00;99.90
11142;DHT22;5625;50.122;19.864;2023-11-21T07:00:15;8.00;99.90
11142;DHT22;5625;50.122;19.864;2023-11-21T07:02:45;8.00;99.90
11142;DHT22;5625;50.122;19.864;2023-11-21T07:05:14;8.00;99.90
11142;DHT22;5625;50.122;19.864;2023-11-21T07:07:42;8.00;99.90
11142;DHT22;5625;50.122;19.864;2023-11-21T07:10:11;8.00;99.90
11142;DHT22;5625;50.122;19.864;2023-11-21T07:12:42;8.00;99.90
11142;DHT22;5625;50.122;19.864;2023-11-21T07:15:10;8.00;99.90
11142;DHT22;5625;50.122;19.864;2023-11-21T07:17:39;8.10;99.90
11142;DHT22;5625;50.122;19.864;2023-11-21T07:20:08;8.10;99.90
11142;DHT22;5625;50.122;19.864;2023-11-21T07:22:38;8.10;99.90
11142;DHT22;5625;50.122;19.864;2023-11-21T07:25:07;8.10;99.90
11142;DHT22;5625;50.122;19.864;2023-11-21T07:27:36;8.10;99.90
11142;DHT22;5625;50.122;19.864;2023-11-21T07:30:07;8.10;99.90
11142;DHT22;5625;50.122;19.864;2023-11-21T07:32:37;8.10;99.90
11142;DHT22;5625;50.122;19.864;2023-11-21T07:35:08;8.10;99.90
11142;DHT22;5625;50.122;19.864;2023-11-21T07:37:37;8.10;99.90
11142;DHT22;5625;50.122;19.864;2023-11-21T07:40:06;8.10;99.90
11142;DHT22;5625;50.122;19.864;2023-11-21T07:42:36;8.10;99.90
11142;DHT22;5625;50.122;19.864;2023-11-21T07:45:07;8.10;99.90
11142;DHT22;5625;50.122;19.864;2023-11-21T07:47:35;8.10;99.90
11142;DHT22;5625;50.122;19.864;2023-11-21T07:50:07;8.10;99.90
11142;DHT22;5625;50.122;19.864;2023-11-21T07:52:36;8.10;99.90
11142;DHT22;5625;50.122;19.864;2023-11-21T07:55:04;8.10;99.90
11142;DHT22;5625;50.122;19.864;2023-11-21T07:57:34;8.10;99.90
11142;DHT22;5625;50.122;19.864;2023-11-21T08:00:03;8.10;99.90
11142;DHT22;5625;50.122;19.864;2023-11-21T08:02:34;8.10;99.90
11142;DHT22;5625;50.122;19.864;2023-11-21T08:05:03;8.20;99.90
11142;DHT22;5625;50.122;19.864;2023-11-21T08:07:31;8.20;99.90
11142;DHT22;5625;50.122;19.864;2023-11-21T08:10:00;8.20;99.90
11142;DHT22;5625;50.122;19.864;2023-11-21T08:12:28;8.20;99.90
11142;DHT22;5625;50.122;19.864;2023-11-21T08:14:56;8.20;99.90
11142;DHT22;5625;50.122;19.864;2023-11-21T08:17:24;8.20;99.90
11142;DHT22;5625;50.122;19.864;2023-11-21T08:19:54;8.20;99.90
11142;DHT22;5625;50.122;19.864;2023-11-21T08:22:22;8.20;99.90
11142;DHT22;5625;50.122;19.864;2023-11-21T08:24:51;8.20;99.90
11142;DHT22;5625;50.122;19.864;2023-11-21T08:27:22;8.30;99.90
11142;DHT22;5625;50.122;19.864;2023-11-21T08:29:51;8.20;99.90
11142;DHT22;5625;50.122;19.864;2023-11-21T08:32:20;8.20;99.90
11142;DHT22;5625;50.122;19.864;2023-11-21T08:34:48;8.30;99.90
11142;DHT22;5625;50.122;19.864;2023-11-21T08:37:20;8.30;99.90
11142;DHT22;5625;50.122;19.864;2023-11-21T08:39:48;8.30;99.90
11142;DHT22;5625;50.122;19.864;2023-11-21T08:42:17;8.20;99.90
11142;DHT22;5625;50.122;19.864;2023-11-21T08:44:45;8.30;99.90
11142;DHT22;5625;50.122;19.864;2023-11-21T08:47:13;8.30;99.90
11142;DHT22;5625;50.122;19.864;2023-11-21T08:49:42;8.30;99.90
11142;DHT22;5625;50.122;19.864;2023-11-21T08:52:10;8.20;99.90
11142;DHT22;5625;50.122;19.864;2023-11-21T08:54:40;8.20;99.90
11142;DHT22;5625;50.122;19.864;2023-11-21T08:57:08;8.20;99.90
11142;DHT22;5625;50.122;19.864;2023-11-21T08:59:36;8.20;99.90
11142;DHT22;5625;50.122;19.864;2023-11-21T09:02:05;8.20;99.90
11142;DHT22;5625;50.122;19.864;2023-11-21T09:04:35;8.20;99.90
11142;DHT22;5625;50.122;19.864;2023-11-21T09:07:04;8.20;99.90
11142;DHT22;5625;50.122;19.864;2023-11-21T09:09:32;8.30;99.90
11142;DHT22;5625;50.122;19.864;2023-11-21T09:12:02;8.30;99.90
11142;DHT22;5625;50.122;19.864;2023-11-21T09:14:31;8.30;99.90
11142;DHT22;5625;50.122;19.864;2023-11-21T09:16:59;8.30;99.90
11142;DHT22;5625;50.122;19.864;2023-11-21T09:19:27;8.30;99.90
11142;DHT22;5625;50.122;19.864;2023-11-21T09:21:56;8.30;99.90
11142;DHT22;5625;50.122;19.864;2023-11-21T09:24:25;8.30;99.90
11142;DHT22;5625;50.122;19.864;2023-11-21T09:26:53;8.30;99.90
11142;DHT22;5625;50.122;19.864;2023-11-21T09:29:22;8.30;99.90
11142;DHT22;5625;50.122;19.864;2023-11-21T09:31:51;8.40;99.90
11142;DHT22;5625;50.122;19.864;2023-11-21T09:34:19;8.40;99.90
11142;DHT22;5625;50.122;19.864;2023-11-21T09:36:47;8.40;99.90
11142;DHT22;5625;50.122;19.864;2023-11-21T09:39:16;8.40;99.90
11142;DHT22;5625;50.122;19.864;2023-11-21T09:41:49;8.40;99.90
11142;DHT22;5625;50.122;19.864;2023-11-21T09:44:22;8.50;99.90
11142;DHT22;5625;50.122;19.864;2023-11-21T09:46:54;8.40;99.90
11142;DHT22;5625;50.122;19.864;2023-11-21T09:49:25;8.50;99.90
11142;DHT22;5625;50.122;19.864;2023-11-21T09:51:55;8.50;99.90
11142;DHT22;5625;50.122;19.864;2023-11-21T09:54:24;8.50;99.90
11142;DHT22;5625;50.122;19.864;2023-11-21T09:56:53;8.60;99.90
11142;DHT22;5625;50.122;19.864;2023-11-21T09:59:24;8.60;99.90
11142;DHT22;5625;50.122;19.864;2023-11-21T10:01:52;8.60;99.90
11142;DHT22;5625;50.122;19.864;2023-11-21T10:04:21;8.60;99.90
11142;DHT22;5625;50.122;19.864;2023-11-21T10:06:50;8.60;99.90
11142;DHT22;5625;50.122;19.864;2023-11-21T10:09:20;8.60;99.90
11142;DHT22;5625;50.122;19.864;2023-11-21T10:11:49;8.60;99.90
11142;DHT22;5625;50.122;19.864;2023-11-21T10:14:19;8.70;99.90
11142;DHT22;5625;50.122;19.864;2023-11-21T10:16:54;8.70;99.90
11142;DHT22;5625;50.122;19.864;2023-11-21T10:19:24;8.70;99.90
11142;DHT22;5625;50.122;19.864;2023-11-21T10:21:54;8.80;99.90
11142;DHT22;5625;50.122;19.864;2023-11-21T10:24:24;8.90;99.90
11142;DHT22;5625;50.122;19.864;2023-11-21T10:26:55;8.90;99.90
11142;DHT22;5625;50.122;19.864;2023-11-21T10:29:23;9.00;99.90
11142;DHT22;5625;50.122;19.864;2023-11-21T10:31:55;9.00;99.90
11142;DHT22;5625;50.122;19.864;2023-11-21T10:34:25;9.00;99.90
11142;DHT22;5625;50.122;19.864;2023-11-21T10:36:54;9.00;99.90
11142;DHT22;5625;50.122;19.864;2023-11-21T10:39:25;9.00;99.90
11142;DHT22;5625;50.122;19.864;2023-11-21T10:41:57;9.00;99.90
11142;DHT22;5625;50.122;19.864;2023-11-21T10:44:27;9.00;99.90
11142;DHT22;5625;50.122;19.864;2023-11-21T10:46:57;9.00;99.90
11142;DHT22;5625;50.122;19.864;2023-11-21T10:49:28;9.00;99.90
11142;DHT22;5625;50.122;19.864;2023-11-21T10:51:56;9.00;99.90
11142;DHT22;5625;50.122;19.864;2023-11-21T10:54:25;8.90;99.90
11142;DHT22;5625;50.122;19.864;2023-11-21T10:56:57;8.90;99.90
11142;DHT22;5625;50.122;19.864;2023-11-21T10:59:29;8.90;99.90
11142;DHT22;5625;50.122;19.864;2023-11-21T11:02:01;8.90;99.90
11142;DHT22;5625;50.122;19.864;2023-11-21T11:04:31;8.90;99.90
11142;DHT22;5625;50.122;19.864;2023-11-21T11:07:03;8.80;99.90
11142;DHT22;5625;50.122;19.864;2023-11-21T11:09:32;8.80;99.90
11142;DHT22;5625;50.122;19.864;2023-11-21T11:12:02;8.80;99.90
11142;DHT22;5625;50.122;19.864;2023-11-21T11:14:32;8.80;99.90
11142;DHT22;5625;50.122;19.864;2023-11-21T11:17:02;8.80;99.90
11142;DHT22;5625;50.122;19.864;2023-11-21T11:19:33;8.80;99.90
11142;DHT22;5625;50.122;19.864;2023-11-21T11:22:10;8.80;99.90
11142;DHT22;5625;50.122;19.864;2023-11-21T11:25:03;8.80;99.90
11142;DHT22;5625;50.122;19.864;2023-11-21T11:27:44;8.80;99.90
11142;DHT22;5625;50.122;19.864;2023-11-21T11:30:26;8.80;99.90
11142;DHT22;5625;50.122;19.864;2023-11-21T11:33:06;8.80;99.90
11142;DHT22;5625;50.122;19.864;2023-11-21T11:35:46;8.90;99.90
11142;DHT22;5625;50.122;19.864;2023-11-21T11:38:18;8.80;99.90
11142;DHT22;5625;50.122;19.864;2023-11-21T11:40:47;8.80;99.90
11142;DHT22;5625;50.122;19.864;2023-11-21T11:43:25;8.80;99.90
11142;DHT22;5625;50.122;19.864;2023-11-21T11:45:56;8.90;99.90
11142;DHT22;5625;50.122;19.864;2023-11-21T11:48:27;8.90;99.90
11142;DHT22;5625;50.122;19.864;2023-11-21T11:51:03;8.90;99.90
11142;DHT22;5625;50.122;19.864;2023-11-21T11:53:36;9.00;99.90
11142;DHT22;5625;50.122;19.864;2023-11-21T11:56:27;9.00;99.90
11142;DHT22;5625;50.122;19.864;2023-11-21T11:58:58;9.00;99.90
11142;DHT22;5625;50.122;19.864;2023-11-21T12:01:31;8.90;99.90
11142;DHT22;5625;50.122;19.864;2023-11-21T12:04:27;8.90;99.90
11142;DHT22;5625;50.122;19.864;2023-11-21T12:07:03;8.90;99.90
11142;DHT22;5625;50.122;19.864;2023-11-21T12:09:32;9.00;99.90
11142;DHT22;5625;50.122;19.864;2023-11-21T12:12:02;9.00;99.90
11142;DHT22;5625;50.122;19.864;2023-11-21T12:14:31;9.00;99.90
11142;DHT22;5625;50.122;19.864;2023-11-21T12:16:59;9.00;99.90
11142;DHT22;5625;50.122;19.864;2023-11-21T12:19:30;9.00;99.90
11142;DHT22;5625;50.122;19.864;2023-11-21T12:21:59;9.00;99.90
11142;DHT22;5625;50.122;19.864;2023-11-21T12:24:28;9.00;99.90
11142;DHT22;5625;50.122;19.864;2023-11-21T12:26:56;9.00;99.90
11142;DHT22;5625;50.122;19.864;2023-11-21T12:29:24;9.00;99.90
11142;DHT22;5625;50.122;19.864;2023-11-21T12:31:52;9.00;99.90
11142;DHT22;5625;50.122;19.864;2023-11-21T12:34:21;9.00;99.90
11142;DHT22;5625;50.122;19.864;2023-11-21T12:36:51;9.00;99.90
11142;DHT22;5625;50.122;19.864;2023-11-21T12:39:22;8.90;99.90
11142;DHT22;5625;50.122;19.864;2023-11-21T12:41:50;8.90;99.90
11142;DHT22;5625;50.122;19.864;2023-11-21T12:44:19;8.90;99.90
11142;DHT22;5625;50.122;19.864;2023-11-21T12:46:50;8.90;99.90
11142;DHT22;5625;50.122;19.864;2023-11-21T12:49:19;8.90;99.90
11142;DHT22;5625;50.122;19.864;2023-11-21T12:51:49;8.90;99.90
11142;DHT22;5625;50.122;19.864;2023-11-21T12:54:18;8.90;99.90
11142;DHT22;5625;50.122;19.864;2023-11-21T12:56:47;8.80;99.90
11142;DHT22;5625;50.122;19.864;2023-11-21T12:59:15;8.80;99.90
11142;DHT22;5625;50.122;19.864;2023-11-21T13:01:45;8.80;99.90
11142;DHT22;5625;50.122;19.864;2023-11-21T13:04:14;8.80;99.90
11142;DHT22;5625;50.122;19.864;2023-11-21T13:06:42;8.80;99.90
11142;DHT22;5625;50.122;19.864;2023-11-21T13:09:11;8.80;99.90
11142;DHT22;5625;50.122;19.864;2023-11-21T13:11:44;8.80;99.90
11142;DHT22;5625;50.122;19.864;2023-11-21T13:14:13;8.80;99.90
11142;DHT22;5625;50.122;19.864;2023-11-21T13:16:41;8.80;99.90
11142;DHT22;5625;50.122;19.864;2023-11-21T13:19:13;8.80;99.90
11142;DHT22;5625;50.122;19.864;2023-11-21T13:21:42;8.80;99.90
11142;DHT22;5625;50.122;19.864;2023-11-21T13:24:11;8.80;99.90
11142;DHT22;5625;50.122;19.864;2023-11-21T13:26:40;8.90;99.90
11142;DHT22;5625;50.122;19.864;2023-11-21T13:29:13;8.90;99.90
11142;DHT22;5625;50.122;19.864;2023-11-21T13:31:43;9.00;99.90
11142;DHT22;5625;50.122;19.864;2023-11-21T13:34:11;9.00;99.90
11142;DHT22;5625;50.122;19.864;2023-11-21T13:36:47;9.00;99.90
11142;DHT22;5625;50.122;19.864;2023-11-21T13:39:15;9.00;99.90
11142;DHT22;5625;50.122;19.864;2023-11-21T13:41:44;9.10;99.90
11142;DHT22;5625;50.122;19.864;2023-11-21T13:44:16;9.00;99.90
11142;DHT22;5625;50.122;19.864;2023-11-21T13:46:54;9.00;99.90
11142;DHT22;5625;50.122;19.864;2023-11-21T13:49:24;9.00;99.90
11142;DHT22;5625;50.122;19.864;2023-11-21T13:51:53;9.00;99.90
11142;DHT22;5625;50.122;19.864;2023-11-21T13:54:22;9.00;99.90
11142;DHT22;5625;50.122;19.864;2023-11-21T13:56:52;8.90;99.90
11142;DHT22;5625;50.122;19.864;2023-11-21T13:59:23;8.90;99.90
11142;DHT22;5625;50.122;19.864;2023-11-21T14:01:53;8.80;99.90
11142;DHT22;5625;50.122;19.864;2023-11-21T14:04:23;8.80;99.90
11142;DHT22;5625;50.122;19.864;2023-11-21T14:07:05;8.80;99.90
11142;DHT22;5625;50.122;19.864;2023-11-21T14:09:49;8.70;99.90
11142;DHT22;5625;50.122;19.864;2023-11-21T14:12:19;8.70;99.90
11142;DHT22;5625;50.122;19.864;2023-11-21T14:14:49;8.70;99.90
11142;DHT22;5625;50.122;19.864;2023-11-21T14:17:18;8.70;99.90
11142;DHT22;5625;50.122;19.864;2023-11-21T14:19:49;8.70;99.90
11142;DHT22;5625;50.122;19.864;2023-11-21T14:22:17;8.70;99.90
11142;DHT22;5625;50.122;19.864;2023-11-21T14:24:47;8.70;99.90
11142;DHT22;5625;50.122;19.864;2023-11-21T14:27:17;8.70;99.90
11142;DHT22;5625;50.122;19.864;2023-11-21T14:29:46;8.60;99.90
11142;DHT22;5625;50.122;19.864;2023-11-21T14:32:15;8.60;99.90
11142;DHT22;5625;50.122;19.864;2023-11-21T14:34:44;8.60;99.90
11142;DHT22;5625;50.122;19.864;2023-11-21T14:37:14;8.60;99.90
11142;DHT22;5625;50.122;19.864;2023-11-21T14:39:42;8.50;99.90
11142;DHT22;5625;50.122;19.864;2023-11-21T14:42:13;8.60;99.90
11142;DHT22;5625;50.122;19.864;2023-11-21T14:44:43;8.50;99.90
11142;DHT22;5625;50.122;19.864;2023-11-21T14:47:12;8.50;99.90
11142;DHT22;5625;50.122;19.864;2023-11-21T14:49:45;8.50;99.90
11142;DHT22;5625;50.122;19.864;2023-11-21T14:52:20;8.50;99.90
11142;DHT22;5625;50.122;19.864;2023-11-21T14:55:01;8.50;99.90
11142;DHT22;5625;50.122;19.864;2023-11-21T14:57:53;8.50;99.90
11142;DHT22;5625;50.122;19.864;2023-11-21T15:00:21;8.40;99.90
11142;DHT22;5625;50.122;19.864;2023-11-21T15:03:12;8.40;99.90
11142;DHT22;5625;50.122;19.864;2023-11-21T15:06:03;8.40;99.90
11142;DHT22;5625;50.122;19.864;2023-11-21T15:08:52;8.40;99.90
11142;DHT22;5625;50.122;19.864;2023-11-21T15:11:26;8.40;99.90
11142;DHT22;5625;50.122;19.864;2023-11-21T15:13:58;8.40;99.90
11142;DHT22;5625;50.122;19.864;2023-11-21T15:16:27;8.40;99.90
11142;DHT22;5625;50.122;19.864;2023-11-21T15:18:55;8.30;99.90
11142;DHT22;5625;50.122;19.864;2023-11-21T15:21:24;8.30;99.90
11142;DHT22;5625;50.122;19.864;2023-11-21T15:23:53;8.30;99.90
11142;DHT22;5625;50.122;19.864;2023-11-21T15:26:21;8.30;99.90
11142;DHT22;5625;50.122;19.864;2023-11-21T15:28:50;8.30;99.90
11142;DHT22;5625;50.122;19.864;2023-11-21T15:31:18;8.30;99.90
11142;DHT22;5625;50.122;19.864;2023-11-21T15:33:51;8.30;99.90
11142;DHT22;5625;50.122;19.864;2023-11-21T15:36:19;8.30;99.90
11142;DHT22;5625;50.122;19.864;2023-11-21T15:38:49;8.30;99.90
11142;DHT22;5625;50.122;19.864;2023-11-21T15:41:17;8.30;99.90
11142;DHT22;5625;50.122;19.864;2023-11-21T15:43:45;8.30;99.90
11142;DHT22;5625;50.122;19.864;2023-11-21T15:46:17;8.30;99.90
11142;DHT22;5625;50.122;19.864;2023-11-21T15:48:46;8.20;99.90
11142;DHT22;5625;50.122;19.864;2023-11-21T15:51:18;8.20;99.90
11142;DHT22;5625;50.122;19.864;2023-11-21T15:53:47;8.20;99.90
11142;DHT22;5625;50.122;19.864;2023-11-21T15:56:16;8.20;99.90
11142;DHT22;5625;50.122;19.864;2023-11-21T15:58:45;8.20;99.90
11142;DHT22;5625;50.122;19.864;2023-11-21T16:01:16;8.20;99.90
11142;DHT22;5625;50.122;19.864;2023-11-21T16:03:45;8.20;99.90